sensor_id;sensor_type;location;lat;lon;timestamp;temperature;humidity
54684;DHT22;40582;53.100;6.686;2023-02-15T00:01:22;2.00;99.90
54684;DHT22;40582;53.100;6.686;2023-02-15T00:03:48;2.00;99.90
54684;DHT22;40582;53.100;6.686;2023-02-15T00:06:14;2.20;99.90
54684;DHT22;40582;53.100;6.686;2023-02-15T00:08:40;2.00;99.90
54684;DHT22;40582;53.100;6.686;2023-02-15T00:11:14;2.00;99.90
54684;DHT22;40582;53.100;6.686;2023-02-15T00:13:41;2.10;99.90
54684;DHT22;40582;53.100;6.686;2023-02-15T00:16:09;1.90;99.90
54684;DHT22;40582;53.100;6.686;2023-02-15T00:18:35;2.30;99.90
54684;DHT22;40582;53.100;6.686;2023-02-15T00:21:07;1.80;99.90
54684;DHT22;40582;53.100;6.686;2023-02-15T00:23:34;2.50;99.90
54684;DHT22;40582;53.100;6.686;2023-02-15T00:26:07;1.90;99.90
54684;DHT22;40582;53.100;6.686;2023-02-15T00:28:33;1.80;99.90
54684;DHT22;40582;53.100;6.686;2023-02-15T00:31:17;1.90;99.90
54684;DHT22;40582;53.100;6.686;2023-02-15T00:33:43;2.10;99.90
54684;DHT22;40582;53.100;6.686;2023-02-15T00:36:11;2.00;99.90
54684;DHT22;40582;53.100;6.686;2023-02-15T00:38:37;1.70;99.90
54684;DHT22;40582;53.100;6.686;2023-02-15T00:41:05;2.20;99.90
54684;DHT22;40582;53.100;6.686;2023-02-15T00:43:33;1.60;99.90
54684;DHT22;40582;53.100;6.686;2023-02-15T00:45:59;2.30;99.90
54684;DHT22;40582;53.100;6.686;2023-02-15T00:48:25;1.60;99.90
54684;DHT22;40582;53.100;6.686;2023-02-15T00:50:52;1.60;99.90
54684;DHT22;40582;53.100;6.686;2023-02-15T00:53:18;2.10;99.90
54684;DHT22;40582;53.100;6.686;2023-02-15T00:55:44;1.50;99.90
54684;DHT22;40582;53.100;6.686;2023-02-15T00:58:11;1.50;99.90
54684;DHT22;40582;53.100;6.686;2023-02-15T01:00:37;2.00;99.90
54684;DHT22;40582;53.100;6.686;2023-02-15T01:03:04;2.20;99.90
54684;DHT22;40582;53.100;6.686;2023-02-15T01:05:30;1.60;99.90
54684;DHT22;40582;53.100;6.686;2023-02-15T01:07:57;1.60;99.90
54684;DHT22;40582;53.100;6.686;2023-02-15T01:10:23;1.70;99.90
54684;DHT22;40582;53.100;6.686;2023-02-15T01:12:50;1.50;99.90
54684;DHT22;40582;53.100;6.686;2023-02-15T01:15:16;2.40;99.90
54684;DHT22;40582;53.100;6.686;2023-02-15T01:17:42;1.60;99.90
54684;DHT22;40582;53.100;6.686;2023-02-15T01:20:09;2.20;99.90
54684;DHT22;40582;53.100;6.686;2023-02-15T01:22:35;1.50;99.90
54684;DHT22;40582;53.100;6.686;2023-02-15T01:25:01;1.50;99.90
54684;DHT22;40582;53.100;6.686;2023-02-15T01:27:26;2.00;99.90
54684;DHT22;40582;53.100;6.686;2023-02-15T01:29:55;2.00;99.90
54684;DHT22;40582;53.100;6.686;2023-02-15T01:32:21;1.70;99.90
54684;DHT22;40582;53.100;6.686;2023-02-15T01:34:47;1.40;99.90
54684;DHT22;40582;53.100;6.686;2023-02-15T01:37:12;2.10;99.90
54684;DHT22;40582;53.100;6.686;2023-02-15T01:39:38;1.40;99.90
54684;DHT22;40582;53.100;6.686;2023-02-15T01:42:04;1.40;99.90
54684;DHT22;40582;53.100;6.686;2023-02-15T01:44:54;1.40;99.90
54684;DHT22;40582;53.100;6.686;2023-02-15T01:47:32;1.40;99.90
54684;DHT22;40582;53.100;6.686;2023-02-15T01:52:54;1.30;99.90
54684;DHT22;40582;53.100;6.686;2023-02-15T01:55:22;1.30;99.90
54684;DHT22;40582;53.100;6.686;2023-02-15T01:57:49;1.30;99.90
54684;DHT22;40582;53.100;6.686;2023-02-15T02:00:17;1.40;99.90
54684;DHT22;40582;53.100;6.686;2023-02-15T02:02:45;1.30;99.90
54684;DHT22;40582;53.100;6.686;2023-02-15T02:05:13;1.30;99.90
54684;DHT22;40582;53.100;6.686;2023-02-15T02:07:43;1.30;99.90
54684;DHT22;40582;53.100;6.686;2023-02-15T02:10:13;2.00;99.90
54684;DHT22;40582;53.100;6.686;2023-02-15T02:12:40;1.80;99.90
54684;DHT22;40582;53.100;6.686;2023-02-15T02:15:07;1.30;99.90
54684;DHT22;40582;53.100;6.686;2023-02-15T02:31:14;1.40;99.90
54684;DHT22;40582;53.100;6.686;2023-02-15T02:36:37;1.30;99.90
54684;DHT22;40582;53.100;6.686;2023-02-15T02:42:22;1.00;99.90
54684;DHT22;40582;53.100;6.686;2023-02-15T02:45:02;1.30;99.90
54684;DHT22;40582;53.100;6.686;2023-02-15T02:50:07;1.00;99.90
54684;DHT22;40582;53.100;6.686;2023-02-15T02:52:47;1.00;99.90
54684;DHT22;40582;53.100;6.686;2023-02-15T02:55:20;1.00;99.90
54684;DHT22;40582;53.100;6.686;2023-02-15T02:57:58;1.00;99.90
54684;DHT22;40582;53.100;6.686;2023-02-15T03:00:26;0.90;99.90
54684;DHT22;40582;53.100;6.686;2023-02-15T03:03:06;1.60;99.90
54684;DHT22;40582;53.100;6.686;2023-02-15T03:05:34;0.90;99.90
54684;DHT22;40582;53.100;6.686;2023-02-15T03:08:04;1.60;99.90
54684;DHT22;40582;53.100;6.686;2023-02-15T03:10:32;0.80;99.90
54684;DHT22;40582;53.100;6.686;2023-02-15T03:13:00;1.10;99.90
54684;DHT22;40582;53.100;6.686;2023-02-15T03:15:30;1.50;99.90
54684;DHT22;40582;53.100;6.686;2023-02-15T03:18:18;1.50;99.90
54684;DHT22;40582;53.100;6.686;2023-02-15T03:20:46;0.80;99.90
54684;DHT22;40582;53.100;6.686;2023-02-15T03:23:20;1.50;99.90
54684;DHT22;40582;53.100;6.686;2023-02-15T03:25:51;0.90;99.90
54684;DHT22;40582;53.100;6.686;2023-02-15T03:28:29;0.80;99.90
54684;DHT22;40582;53.100;6.686;2023-02-15T03:31:00;0.80;99.90
54684;DHT22;40582;53.100;6.686;2023-02-15T03:33:28;1.50;99.90
54684;DHT22;40582;53.100;6.686;2023-02-15T03:36:00;1.30;99.90
54684;DHT22;40582;53.100;6.686;2023-02-15T03:38:43;0.90;99.90
54684;DHT22;40582;53.100;6.686;2023-02-15T03:41:11;2.00;99.90
54684;DHT22;40582;53.100;6.686;2023-02-15T03:43:57;1.10;99.90
54684;DHT22;40582;53.100;6.686;2023-02-15T03:51:40;1.70;99.90
54684;DHT22;40582;53.100;6.686;2023-02-15T03:54:08;1.20;99.90
54684;DHT22;40582;53.100;6.686;2023-02-15T03:56:40;1.10;99.90
54684;DHT22;40582;53.100;6.686;2023-02-15T03:59:07;0.60;99.90
54684;DHT22;40582;53.100;6.686;2023-02-15T04:04:45;1.10;99.90
54684;DHT22;40582;53.100;6.686;2023-02-15T04:07:11;0.50;99.90
54684;DHT22;40582;53.100;6.686;2023-02-15T04:09:37;1.00;99.90
54684;DHT22;40582;53.100;6.686;2023-02-15T04:12:22;0.50;99.90
54684;DHT22;40582;53.100;6.686;2023-02-15T04:14:48;0.50;99.90
54684;DHT22;40582;53.100;6.686;2023-02-15T04:17:32;0.60;99.90
54684;DHT22;40582;53.100;6.686;2023-02-15T04:19:57;0.60;99.90
54684;DHT22;40582;53.100;6.686;2023-02-15T04:22:43;0.70;99.90
54684;DHT22;40582;53.100;6.686;2023-02-15T04:25:27;0.80;99.90
54684;DHT22;40582;53.100;6.686;2023-02-15T04:27:54;0.60;99.90
54684;DHT22;40582;53.100;6.686;2023-02-15T04:30:22;1.50;99.90
54684;DHT22;40582;53.100;6.686;2023-02-15T04:32:48;1.10;99.90
54684;DHT22;40582;53.100;6.686;2023-02-15T04:35:14;1.50;99.90
54684;DHT22;40582;53.100;6.686;2023-02-15T04:37:41;0.50;99.90
54684;DHT22;40582;53.100;6.686;2023-02-15T04:40:10;1.00;99.90
54684;DHT22;40582;53.100;6.686;2023-02-15T04:42:36;0.50;99.90
54684;DHT22;40582;53.100;6.686;2023-02-15T04:45:02;1.10;99.90
54684;DHT22;40582;53.100;6.686;2023-02-15T04:47:28;0.50;99.90
54684;DHT22;40582;53.100;6.686;2023-02-15T04:49:54;0.90;99.90
54684;DHT22;40582;53.100;6.686;2023-02-15T04:52:19;1.90;99.90
54684;DHT22;40582;53.100;6.686;2023-02-15T04:54:45;1.00;99.90
54684;DHT22;40582;53.100;6.686;2023-02-15T04:57:11;0.50;99.90
54684;DHT22;40582;53.100;6.686;2023-02-15T04:59:37;0.50;99.90
54684;DHT22;40582;53.100;6.686;2023-02-15T05:02:03;1.80;99.90
54684;DHT22;40582;53.100;6.686;2023-02-15T05:04:29;0.40;99.90
54684;DHT22;40582;53.100;6.686;2023-02-15T05:06:54;0.50;99.90
54684;DHT22;40582;53.100;6.686;2023-02-15T05:09:20;1.10;99.90
54684;DHT22;40582;53.100;6.686;2023-02-15T05:11:46;0.50;99.90
54684;DHT22;40582;53.100;6.686;2023-02-15T05:14:12;1.40;99.90
54684;DHT22;40582;53.100;6.686;2023-02-15T05:16:38;0.40;99.90
54684;DHT22;40582;53.100;6.686;2023-02-15T05:19:04;0.40;99.90
54684;DHT22;40582;53.100;6.686;2023-02-15T05:21:30;0.40;99.90
54684;DHT22;40582;53.100;6.686;2023-02-15T05:23:56;1.40;99.90
54684;DHT22;40582;53.100;6.686;2023-02-15T05:26:23;1.20;99.90
54684;DHT22;40582;53.100;6.686;2023-02-15T05:29:08;0.80;99.90
54684;DHT22;40582;53.100;6.686;2023-02-15T05:31:35;0.40;99.90
54684;DHT22;40582;53.100;6.686;2023-02-15T05:34:01;0.40;99.90
54684;DHT22;40582;53.100;6.686;2023-02-15T05:36:27;0.40;99.90
54684;DHT22;40582;53.100;6.686;2023-02-15T05:38:53;0.40;99.90
54684;DHT22;40582;53.100;6.686;2023-02-15T05:41:19;1.00;99.90
54684;DHT22;40582;53.100;6.686;2023-02-15T05:43:44;0.40;99.90
54684;DHT22;40582;53.100;6.686;2023-02-15T05:46:11;1.20;99.90
54684;DHT22;40582;53.100;6.686;2023-02-15T05:48:37;0.30;99.90
54684;DHT22;40582;53.100;6.686;2023-02-15T05:51:07;0.60;99.90
54684;DHT22;40582;53.100;6.686;2023-02-15T05:53:38;0.20;99.90
54684;DHT22;40582;53.100;6.686;2023-02-15T05:56:06;0.20;99.90
54684;DHT22;40582;53.100;6.686;2023-02-15T05:58:39;0.20;99.90
54684;DHT22;40582;53.100;6.686;2023-02-15T06:01:13;0.20;99.90
54684;DHT22;40582;53.100;6.686;2023-02-15T06:03:39;0.50;99.90
54684;DHT22;40582;53.100;6.686;2023-02-15T06:06:06;0.20;99.90
54684;DHT22;40582;53.100;6.686;2023-02-15T06:08:33;0.30;99.90
54684;DHT22;40582;53.100;6.686;2023-02-15T06:10:59;1.00;99.90
54684;DHT22;40582;53.100;6.686;2023-02-15T06:13:25;0.20;99.90
54684;DHT22;40582;53.100;6.686;2023-02-15T06:15:51;0.20;99.90
54684;DHT22;40582;53.100;6.686;2023-02-15T06:18:17;0.90;99.90
54684;DHT22;40582;53.100;6.686;2023-02-15T06:20:45;0.20;99.90
54684;DHT22;40582;53.100;6.686;2023-02-15T06:23:11;0.20;99.90
54684;DHT22;40582;53.100;6.686;2023-02-15T06:25:36;0.20;99.90
54684;DHT22;40582;53.100;6.686;2023-02-15T06:28:02;0.90;99.90
54684;DHT22;40582;53.100;6.686;2023-02-15T06:30:28;0.60;99.90
54684;DHT22;40582;53.100;6.686;2023-02-15T06:32:53;0.30;99.90
54684;DHT22;40582;53.100;6.686;2023-02-15T06:35:19;0.50;99.90
54684;DHT22;40582;53.100;6.686;2023-02-15T06:37:46;1.00;99.90
54684;DHT22;40582;53.100;6.686;2023-02-15T06:40:12;0.30;99.90
54684;DHT22;40582;53.100;6.686;2023-02-15T06:42:38;0.30;99.90
54684;DHT22;40582;53.100;6.686;2023-02-15T06:45:04;1.30;99.90
54684;DHT22;40582;53.100;6.686;2023-02-15T06:47:30;0.30;99.90
54684;DHT22;40582;53.100;6.686;2023-02-15T06:49:56;0.40;99.90
54684;DHT22;40582;53.100;6.686;2023-02-15T06:52:23;0.40;99.90
54684;DHT22;40582;53.100;6.686;2023-02-15T06:54:48;0.40;99.90
54684;DHT22;40582;53.100;6.686;2023-02-15T06:57:14;0.60;99.90
54684;DHT22;40582;53.100;6.686;2023-02-15T06:59:40;0.60;99.90
54684;DHT22;40582;53.100;6.686;2023-02-15T07:02:05;0.50;99.90
54684;DHT22;40582;53.100;6.686;2023-02-15T07:04:31;1.50;99.90
54684;DHT22;40582;53.100;6.686;2023-02-15T07:06:57;0.60;99.90
54684;DHT22;40582;53.100;6.686;2023-02-15T07:09:22;0.60;99.90
54684;DHT22;40582;53.100;6.686;2023-02-15T07:11:48;0.70;99.90
54684;DHT22;40582;53.100;6.686;2023-02-15T07:14:32;0.80;99.90
54684;DHT22;40582;53.100;6.686;2023-02-15T07:16:58;1.20;99.90
54684;DHT22;40582;53.100;6.686;2023-02-15T07:19:24;0.90;99.90
54684;DHT22;40582;53.100;6.686;2023-02-15T07:21:50;0.90;99.90
54684;DHT22;40582;53.100;6.686;2023-02-15T07:24:15;0.90;99.90
54684;DHT22;40582;53.100;6.686;2023-02-15T07:26:41;0.90;99.90
54684;DHT22;40582;53.100;6.686;2023-02-15T07:29:07;0.90;99.90
54684;DHT22;40582;53.100;6.686;2023-02-15T07:31:32;1.00;99.90
54684;DHT22;40582;53.100;6.686;2023-02-15T07:33:58;1.00;99.90
54684;DHT22;40582;53.100;6.686;2023-02-15T07:36:23;1.70;99.90
54684;DHT22;40582;53.100;6.686;2023-02-15T07:38:49;1.10;99.90
54684;DHT22;40582;53.100;6.686;2023-02-15T07:41:15;1.20;99.90
54684;DHT22;40582;53.100;6.686;2023-02-15T07:43:43;1.30;99.90
54684;DHT22;40582;53.100;6.686;2023-02-15T07:46:12;1.40;99.90
54684;DHT22;40582;53.100;6.686;2023-02-15T07:48:39;1.30;99.90
54684;DHT22;40582;53.100;6.686;2023-02-15T07:51:07;1.80;99.90
54684;DHT22;40582;53.100;6.686;2023-02-15T07:53:35;1.50;99.90
54684;DHT22;40582;53.100;6.686;2023-02-15T07:56:02;2.00;99.90
54684;DHT22;40582;53.100;6.686;2023-02-15T07:58:28;1.70;99.90
54684;DHT22;40582;53.100;6.686;2023-02-15T08:01:14;1.80;99.90
54684;DHT22;40582;53.100;6.686;2023-02-15T08:03:40;1.80;99.90
54684;DHT22;40582;53.100;6.686;2023-02-15T08:06:06;1.90;99.90
54684;DHT22;40582;53.100;6.686;2023-02-15T08:08:35;1.90;99.90
54684;DHT22;40582;53.100;6.686;2023-02-15T08:11:09;2.10;99.90
54684;DHT22;40582;53.100;6.686;2023-02-15T08:13:56;2.00;99.90
54684;DHT22;40582;53.100;6.686;2023-02-15T08:16:26;2.10;99.90
54684;DHT22;40582;53.100;6.686;2023-02-15T08:18:53;2.70;99.90
54684;DHT22;40582;53.100;6.686;2023-02-15T08:21:20;2.60;99.90
54684;DHT22;40582;53.100;6.686;2023-02-15T08:23:46;3.00;99.90
54684;DHT22;40582;53.100;6.686;2023-02-15T08:26:12;3.10;99.90
54684;DHT22;40582;53.100;6.686;2023-02-15T08:28:38;2.90;99.90
54684;DHT22;40582;53.100;6.686;2023-02-15T08:31:08;2.70;99.90
54684;DHT22;40582;53.100;6.686;2023-02-15T08:33:36;2.80;99.90
54684;DHT22;40582;53.100;6.686;2023-02-15T08:36:06;3.30;99.90
54684;DHT22;40582;53.100;6.686;2023-02-15T08:38:33;3.10;99.90
54684;DHT22;40582;53.100;6.686;2023-02-15T08:41:09;3.70;99.90
54684;DHT22;40582;53.100;6.686;2023-02-15T08:43:35;3.90;99.90
54684;DHT22;40582;53.100;6.686;2023-02-15T08:46:01;3.70;99.90
54684;DHT22;40582;53.100;6.686;2023-02-15T08:48:26;3.90;99.90
54684;DHT22;40582;53.100;6.686;2023-02-15T08:50:52;4.00;99.90
54684;DHT22;40582;53.100;6.686;2023-02-15T08:53:18;4.10;99.90
54684;DHT22;40582;53.100;6.686;2023-02-15T08:55:47;4.30;99.90
54684;DHT22;40582;53.100;6.686;2023-02-15T08:58:13;4.30;99.90
54684;DHT22;40582;53.100;6.686;2023-02-15T09:00:38;4.30;99.90
54684;DHT22;40582;53.100;6.686;2023-02-15T09:03:04;4.40;99.90
54684;DHT22;40582;53.100;6.686;2023-02-15T09:05:30;4.60;99.90
54684;DHT22;40582;53.100;6.686;2023-02-15T09:07:55;4.60;99.90
54684;DHT22;40582;53.100;6.686;2023-02-15T09:10:21;4.80;99.90
54684;DHT22;40582;53.100;6.686;2023-02-15T09:12:47;4.90;99.90
54684;DHT22;40582;53.100;6.686;2023-02-15T09:15:15;4.90;99.90
54684;DHT22;40582;53.100;6.686;2023-02-15T09:17:41;5.00;99.90
54684;DHT22;40582;53.100;6.686;2023-02-15T09:20:07;5.10;99.90
54684;DHT22;40582;53.100;6.686;2023-02-15T09:22:32;5.10;99.90
54684;DHT22;40582;53.100;6.686;2023-02-15T09:24:58;5.20;99.90
54684;DHT22;40582;53.100;6.686;2023-02-15T09:27:24;5.20;99.90
54684;DHT22;40582;53.100;6.686;2023-02-15T09:29:49;5.20;99.90
54684;DHT22;40582;53.100;6.686;2023-02-15T09:32:15;5.30;99.90
54684;DHT22;40582;53.100;6.686;2023-02-15T09:34:42;5.40;99.90
54684;DHT22;40582;53.100;6.686;2023-02-15T09:37:08;5.50;99.90
54684;DHT22;40582;53.100;6.686;2023-02-15T09:39:37;5.50;99.90
54684;DHT22;40582;53.100;6.686;2023-02-15T09:45:20;5.60;99.90
54684;DHT22;40582;53.100;6.686;2023-02-15T09:50:36;5.90;99.90
54684;DHT22;40582;53.100;6.686;2023-02-15T10:10:29;6.90;99.90
54684;DHT22;40582;53.100;6.686;2023-02-15T10:13:04;7.00;99.90
54684;DHT22;40582;53.100;6.686;2023-02-15T10:21:23;7.30;99.90
54684;DHT22;40582;53.100;6.686;2023-02-15T10:26:28;7.50;99.90
54684;DHT22;40582;53.100;6.686;2023-02-15T10:31:34;7.50;99.90
54684;DHT22;40582;53.100;6.686;2023-02-15T10:48:39;7.70;99.90
54684;DHT22;40582;53.100;6.686;2023-02-15T10:54:20;7.70;99.90
54684;DHT22;40582;53.100;6.686;2023-02-15T11:00:15;8.10;99.90
54684;DHT22;40582;53.100;6.686;2023-02-15T11:05:35;8.40;99.90
54684;DHT22;40582;53.100;6.686;2023-02-15T11:08:05;8.50;99.90
54684;DHT22;40582;53.100;6.686;2023-02-15T11:10:51;8.60;99.90
54684;DHT22;40582;53.100;6.686;2023-02-15T11:13:19;8.60;99.90
54684;DHT22;40582;53.100;6.686;2023-02-15T11:15:51;8.60;99.90
54684;DHT22;40582;53.100;6.686;2023-02-15T11:21:06;8.70;99.90
54684;DHT22;40582;53.100;6.686;2023-02-15T11:23:35;8.70;99.90
54684;DHT22;40582;53.100;6.686;2023-02-15T11:26:11;8.80;99.90
54684;DHT22;40582;53.100;6.686;2023-02-15T11:29:05;8.80;99.90
54684;DHT22;40582;53.100;6.686;2023-02-15T11:31:34;8.90;99.90
54684;DHT22;40582;53.100;6.686;2023-02-15T11:34:10;9.10;99.90
54684;DHT22;40582;53.100;6.686;2023-02-15T11:36:40;9.20;99.90
54684;DHT22;40582;53.100;6.686;2023-02-15T11:39:12;9.30;99.90
54684;DHT22;40582;53.100;6.686;2023-02-15T11:41:44;9.50;99.90
54684;DHT22;40582;53.100;6.686;2023-02-15T11:44:20;9.60;99.90
54684;DHT22;40582;53.100;6.686;2023-02-15T11:46:46;9.70;99.90
54684;DHT22;40582;53.100;6.686;2023-02-15T11:51:48;9.90;99.90
54684;DHT22;40582;53.100;6.686;2023-02-15T11:54:18;10.00;99.90
54684;DHT22;40582;53.100;6.686;2023-02-15T11:56:45;10.00;99.90
54684;DHT22;40582;53.100;6.686;2023-02-15T11:59:17;10.00;99.90
54684;DHT22;40582;53.100;6.686;2023-02-15T12:01:45;10.00;99.90
54684;DHT22;40582;53.100;6.686;2023-02-15T12:04:32;10.00;99.90
54684;DHT22;40582;53.100;6.686;2023-02-15T12:07:20;10.10;99.90
54684;DHT22;40582;53.100;6.686;2023-02-15T12:12:34;10.60;99.90
54684;DHT22;40582;53.100;6.686;2023-02-15T12:15:09;10.80;99.90
54684;DHT22;40582;53.100;6.686;2023-02-15T12:17:40;10.90;99.90
54684;DHT22;40582;53.100;6.686;2023-02-15T12:20:24;11.00;99.90
54684;DHT22;40582;53.100;6.686;2023-02-15T12:23:15;10.90;99.90
54684;DHT22;40582;53.100;6.686;2023-02-15T12:25:52;10.90;99.90
54684;DHT22;40582;53.100;6.686;2023-02-15T12:28:37;10.80;99.90
54684;DHT22;40582;53.100;6.686;2023-02-15T12:31:41;10.70;99.90
54684;DHT22;40582;53.100;6.686;2023-02-15T12:36:55;10.60;99.90
54684;DHT22;40582;53.100;6.686;2023-02-15T12:39:32;10.70;99.90
54684;DHT22;40582;53.100;6.686;2023-02-15T12:42:14;10.70;99.90
54684;DHT22;40582;53.100;6.686;2023-02-15T12:45:03;10.70;99.90
54684;DHT22;40582;53.100;6.686;2023-02-15T12:47:30;10.70;99.90
54684;DHT22;40582;53.100;6.686;2023-02-15T12:50:07;10.70;99.90
54684;DHT22;40582;53.100;6.686;2023-02-15T12:52:34;10.60;99.90
54684;DHT22;40582;53.100;6.686;2023-02-15T12:55:29;10.70;99.90
54684;DHT22;40582;53.100;6.686;2023-02-15T12:58:31;10.70;99.90
54684;DHT22;40582;53.100;6.686;2023-02-15T13:01:16;10.80;99.90
54684;DHT22;40582;53.100;6.686;2023-02-15T13:03:58;10.90;99.90
54684;DHT22;40582;53.100;6.686;2023-02-15T13:06:26;10.90;99.90
54684;DHT22;40582;53.100;6.686;2023-02-15T13:08:58;10.80;99.90
54684;DHT22;40582;53.100;6.686;2023-02-15T13:11:31;10.80;99.90
54684;DHT22;40582;53.100;6.686;2023-02-15T13:14:02;10.70;99.90
54684;DHT22;40582;53.100;6.686;2023-02-15T13:16:34;10.60;99.90
54684;DHT22;40582;53.100;6.686;2023-02-15T13:19:31;10.50;99.90
54684;DHT22;40582;53.100;6.686;2023-02-15T13:22:03;10.40;99.90
54684;DHT22;40582;53.100;6.686;2023-02-15T13:24:39;10.40;99.90
54684;DHT22;40582;53.100;6.686;2023-02-15T13:27:04;10.30;99.90
54684;DHT22;40582;53.100;6.686;2023-02-15T13:29:36;10.30;99.90
54684;DHT22;40582;53.100;6.686;2023-02-15T13:32:15;10.30;99.90
54684;DHT22;40582;53.100;6.686;2023-02-15T13:34:46;10.40;99.90
54684;DHT22;40582;53.100;6.686;2023-02-15T13:37:30;10.40;99.90
54684;DHT22;40582;53.100;6.686;2023-02-15T13:43:25;10.50;99.90
54684;DHT22;40582;53.100;6.686;2023-02-15T13:54:21;10.50;99.90
54684;DHT22;40582;53.100;6.686;2023-02-15T13:56:53;10.40;99.90
54684;DHT22;40582;53.100;6.686;2023-02-15T13:59:52;10.40;99.90
54684;DHT22;40582;53.100;6.686;2023-02-15T14:05:15;10.40;99.90
54684;DHT22;40582;53.100;6.686;2023-02-15T14:10:54;10.40;99.90
54684;DHT22;40582;53.100;6.686;2023-02-15T14:13:55;10.40;99.90
54684;DHT22;40582;53.100;6.686;2023-02-15T14:16:45;10.40;99.90
54684;DHT22;40582;53.100;6.686;2023-02-15T14:19:25;10.40;99.90
54684;DHT22;40582;53.100;6.686;2023-02-15T14:22:00;10.40;99.90
54684;DHT22;40582;53.100;6.686;2023-02-15T14:24:44;10.40;99.90
54684;DHT22;40582;53.100;6.686;2023-02-15T14:27:35;10.40;99.90
54684;DHT22;40582;53.100;6.686;2023-02-15T14:30:21;10.30;99.90
54684;DHT22;40582;53.100;6.686;2023-02-15T14:32:52;10.30;99.90
54684;DHT22;40582;53.100;6.686;2023-02-15T14:35:22;10.30;99.90
54684;DHT22;40582;53.100;6.686;2023-02-15T14:48:56;10.10;99.90
54684;DHT22;40582;53.100;6.686;2023-02-15T14:59:57;10.00;99.90
54684;DHT22;40582;53.100;6.686;2023-02-15T15:02:45;9.90;99.90
54684;DHT22;40582;53.100;6.686;2023-02-15T15:07:47;9.80;99.90
54684;DHT22;40582;53.100;6.686;2023-02-15T15:12:54;9.70;99.90
54684;DHT22;40582;53.100;6.686;2023-02-15T15:20:59;9.60;99.90
54684;DHT22;40582;53.100;6.686;2023-02-15T15:26:21;9.50;99.90
54684;DHT22;40582;53.100;6.686;2023-02-15T15:36:45;9.30;99.90
54684;DHT22;40582;53.100;6.686;2023-02-15T15:39:58;9.20;99.90
54684;DHT22;40582;53.100;6.686;2023-02-15T15:42:49;9.20;99.90
54684;DHT22;40582;53.100;6.686;2023-02-15T15:45:38;9.20;99.90
54684;DHT22;40582;53.100;6.686;2023-02-15T15:50:57;9.10;99.90
54684;DHT22;40582;53.100;6.686;2023-02-15T15:53:26;9.00;99.90
54684;DHT22;40582;53.100;6.686;2023-02-15T15:56:00;9.00;99.90
54684;DHT22;40582;53.100;6.686;2023-02-15T15:58:29;8.90;99.90
54684;DHT22;40582;53.100;6.686;2023-02-15T16:01:10;8.90;99.90
54684;DHT22;40582;53.100;6.686;2023-02-15T16:03:47;8.80;99.90
54684;DHT22;40582;53.100;6.686;2023-02-15T16:06:14;8.80;99.90
54684;DHT22;40582;53.100;6.686;2023-02-15T16:08:51;8.70;99.90
54684;DHT22;40582;53.100;6.686;2023-02-15T16:11:21;8.70;99.90
54684;DHT22;40582;53.100;6.686;2023-02-15T16:13:48;8.60;99.90
54684;DHT22;40582;53.100;6.686;2023-02-15T16:16:21;8.60;99.90
54684;DHT22;40582;53.100;6.686;2023-02-15T16:18:47;8.50;99.90
54684;DHT22;40582;53.100;6.686;2023-02-15T16:21:31;8.50;99.90
54684;DHT22;40582;53.100;6.686;2023-02-15T16:24:13;8.40;99.90
54684;DHT22;40582;53.100;6.686;2023-02-15T16:29:23;8.30;99.90
54684;DHT22;40582;53.100;6.686;2023-02-15T16:34:58;8.20;99.90
54684;DHT22;40582;53.100;6.686;2023-02-15T16:37:26;8.10;99.90
54684;DHT22;40582;53.100;6.686;2023-02-15T16:39:54;8.10;99.90
54684;DHT22;40582;53.100;6.686;2023-02-15T16:42:20;8.00;99.90
54684;DHT22;40582;53.100;6.686;2023-02-15T16:44:50;8.00;99.90
54684;DHT22;40582;53.100;6.686;2023-02-15T16:47:26;8.00;99.90
54684;DHT22;40582;53.100;6.686;2023-02-15T16:49:55;7.90;99.90
54684;DHT22;40582;53.100;6.686;2023-02-15T16:52:24;7.90;99.90
54684;DHT22;40582;53.100;6.686;2023-02-15T16:55:03;7.80;99.90
54684;DHT22;40582;53.100;6.686;2023-02-15T16:57:36;7.70;99.90
54684;DHT22;40582;53.100;6.686;2023-02-15T17:00:18;7.70;99.90
54684;DHT22;40582;53.100;6.686;2023-02-15T17:05:44;7.60;99.90
54684;DHT22;40582;53.100;6.686;2023-02-15T17:08:28;7.60;99.90
54684;DHT22;40582;53.100;6.686;2023-02-15T17:13:34;7.50;99.90
54684;DHT22;40582;53.100;6.686;2023-02-15T17:18:29;7.40;99.90
54684;DHT22;40582;53.100;6.686;2023-02-15T17:21:00;7.40;99.90
54684;DHT22;40582;53.100;6.686;2023-02-15T17:25:55;7.40;99.90
54684;DHT22;40582;53.100;6.686;2023-02-15T17:28:24;7.30;99.90
54684;DHT22;40582;53.100;6.686;2023-02-15T17:30:54;7.30;99.90
54684;DHT22;40582;53.100;6.686;2023-02-15T17:33:25;7.30;99.90
54684;DHT22;40582;53.100;6.686;2023-02-15T17:38:40;7.30;99.90
54684;DHT22;40582;53.100;6.686;2023-02-15T17:41:06;7.20;99.90
54684;DHT22;40582;53.100;6.686;2023-02-15T17:43:32;7.20;99.90
54684;DHT22;40582;53.100;6.686;2023-02-15T17:45:58;7.20;99.90
54684;DHT22;40582;53.100;6.686;2023-02-15T17:48:30;7.10;99.90
54684;DHT22;40582;53.100;6.686;2023-02-15T17:51:04;7.10;99.90
54684;DHT22;40582;53.100;6.686;2023-02-15T17:53:30;7.00;99.90
54684;DHT22;40582;53.100;6.686;2023-02-15T17:55:57;7.00;99.90
54684;DHT22;40582;53.100;6.686;2023-02-15T17:58:23;7.00;99.90
54684;DHT22;40582;53.100;6.686;2023-02-15T18:00:54;7.00;99.90
54684;DHT22;40582;53.100;6.686;2023-02-15T18:03:43;6.90;99.90
54684;DHT22;40582;53.100;6.686;2023-02-15T18:06:29;6.90;99.90
54684;DHT22;40582;53.100;6.686;2023-02-15T18:09:15;6.90;99.90
54684;DHT22;40582;53.100;6.686;2023-02-15T18:12:00;7.00;99.90
54684;DHT22;40582;53.100;6.686;2023-02-15T18:14:26;6.90;99.90
54684;DHT22;40582;53.100;6.686;2023-02-15T18:16:53;6.90;99.90
54684;DHT22;40582;53.100;6.686;2023-02-15T18:19:23;7.00;99.90
54684;DHT22;40582;53.100;6.686;2023-02-15T18:21:50;6.90;99.90
54684;DHT22;40582;53.100;6.686;2023-02-15T18:24:22;6.90;99.90
54684;DHT22;40582;53.100;6.686;2023-02-15T18:26:52;6.90;99.90
54684;DHT22;40582;53.100;6.686;2023-02-15T18:29:19;6.90;99.90
54684;DHT22;40582;53.100;6.686;2023-02-15T18:31:48;6.90;99.90
54684;DHT22;40582;53.100;6.686;2023-02-15T18:34:34;6.90;99.90
54684;DHT22;40582;53.100;6.686;2023-02-15T18:37:04;6.90;99.90
54684;DHT22;40582;53.100;6.686;2023-02-15T18:39:42;6.90;99.90
54684;DHT22;40582;53.100;6.686;2023-02-15T18:42:28;6.80;99.90
54684;DHT22;40582;53.100;6.686;2023-02-15T18:45:00;6.80;99.90
54684;DHT22;40582;53.100;6.686;2023-02-15T18:47:28;6.80;99.90
54684;DHT22;40582;53.100;6.686;2023-02-15T18:49:54;6.80;99.90
54684;DHT22;40582;53.100;6.686;2023-02-15T18:52:26;6.80;99.90
54684;DHT22;40582;53.100;6.686;2023-02-15T18:54:57;6.80;99.90
54684;DHT22;40582;53.100;6.686;2023-02-15T18:57:23;6.70;99.90
54684;DHT22;40582;53.100;6.686;2023-02-15T18:59:48;6.70;99.90
54684;DHT22;40582;53.100;6.686;2023-02-15T19:02:16;6.70;99.90
54684;DHT22;40582;53.100;6.686;2023-02-15T19:04:43;6.70;99.90
54684;DHT22;40582;53.100;6.686;2023-02-15T19:07:22;6.70;99.90
54684;DHT22;40582;53.100;6.686;2023-02-15T19:09:52;6.70;99.90
54684;DHT22;40582;53.100;6.686;2023-02-15T19:12:18;6.70;99.90